Airfield :
LOGIN :

Register | Disclaimer

   EN    FR    IT 

 










Legend :    VFR   Marginal VFR   IFR   Intensive IFR   Very Intensive IFR
Visi :
Ceiling :
>= 8 km
>= 3000ft
5 to 8 km
1000 to 3000 ft
1500m to 5 km
500 to 1000 ft
800 to 1500m
200 to 500 ft
< 800m
< 200 ft
Symbols :   Thunderstorms  Fog  Heavy snow  Heavy precipitations  Wind > 20 kt
SIGMETs :     Misc.  Thunderstorms  Icing  Turbulence  Mountain Waves  Volcanic Ashes






- Airport Elevation : 12 ft
- IATA code : CQF


LFAC - Calais

CURRENT METAR :
  • 191500Z AUTO 26014KT 9999 -DZ BKN016 BKN030 BKN041 08/05 Q1022

EXPIRED METARs :
  • 191430Z AUTO 26013KT 9999 -RA FEW023 BKN038 OVC049 08/04 Q1022
  • 191400Z AUTO 26016KT 9999 FEW025 SCT037 BKN054 09/03 Q1022
  • 191330Z AUTO 25016G27KT 9999 FEW027 SCT210 09/03 Q1022
  • 191300Z AUTO 26013KT 9999 FEW031 BKN230 09/03 Q1022
  • 191230Z AUTO 25014KT 9999 FEW030 BKN230 08/02 Q1022

TAF N/A
ATIS : +33 3 21 00 11 14



MET'MAP, your aeronautical weather chart ! - Copyright ORBIFLY December 2007 - Disclaimer

ORBIFLY MET'MAP TEAM :

Programming & Development : Alexandra Zaïnal
Concept & original design : Baudouin d'Aumeries
Assistance for programming : Marc-Olivier Méhu
Technical & hardware support : Manuel Goepfert

Contact : metmap@orbifly.com




SOURCES & CREDITS :

   NOAA